ADDS METAR Data

Data at: 0747 UTC 24 Oct 2017

METAR for:KBOS (Boston/Logan Intl, MA, US)
Text:KBOS 240654Z 16010KT 10SM FEW035 17/16 A3009 RMK AO2 SLP188 T01720161
Temperature: 17.2°C ( 63°F)
Dewpoint: 16.1°C ( 61°F) [RH = 93%]
Pressure (altimeter):30.09 inches Hg (1019.0 mb) [Sea level pressure: 1018.8 mb]
Winds:from the SSE (160 degrees) at 12 MPH (10 knots; 5.1 m/s)
Visibility:10 or more sm (16+ km)
Ceiling:at least 12,000 feet AGL
Clouds: few clouds at 3500 feet AGL